createdAt,value
2022-12-13T00:02:08.366Z,69.20
2022-12-13T00:04:35.129Z,69.00
2022-12-13T00:07:01.872Z,69.00
2022-12-13T00:09:28.576Z,68.80
2022-12-13T00:11:55.380Z,68.40
2022-12-13T00:14:22.208Z,68.60
2022-12-13T00:16:49.419Z,68.50
2022-12-13T00:19:16.802Z,68.30
2022-12-13T00:21:44.051Z,68.30
2022-12-13T00:24:10.780Z,68.10
2022-12-13T00:26:38.446Z,68.00
2022-12-13T00:29:06.108Z,67.80
2022-12-13T00:34:19.743Z,67.50
2022-12-13T00:36:46.783Z,67.40
2022-12-13T00:39:16.569Z,67.30
2022-12-13T00:41:45.118Z,67.20
2022-12-13T00:44:14.063Z,67.00
2022-12-13T00:46:41.010Z,66.90
2022-12-13T00:49:07.804Z,66.80
2022-12-13T00:51:34.903Z,66.90
2022-12-13T00:54:01.731Z,67.60
2022-12-13T00:56:29.739Z,66.80
2022-12-13T00:58:56.622Z,66.90
2022-12-13T01:01:28.353Z,67.70
2022-12-13T01:03:55.761Z,66.90
2022-12-13T01:06:42.096Z,66.90
2022-12-13T01:09:18.233Z,66.90
2022-12-13T01:11:46.822Z,66.90
2022-12-13T01:14:13.673Z,66.90
2022-12-13T01:16:40.430Z,66.80
2022-12-13T01:19:07.162Z,66.90
2022-12-13T01:21:33.909Z,66.80
2022-12-13T01:24:02.323Z,66.80
2022-12-13T01:26:29.280Z,66.80
2022-12-13T01:28:56.011Z,66.80
2022-12-13T01:31:22.782Z,66.80
2022-12-13T01:33:49.687Z,66.80
2022-12-13T01:36:26.979Z,66.80
2022-12-13T01:38:58.296Z,66.70
2022-12-13T01:41:27.242Z,66.80
2022-12-13T01:44:01.184Z,66.80
2022-12-13T01:46:28.311Z,67.50
2022-12-13T01:49:04.176Z,66.80
2022-12-13T01:51:59.134Z,66.80
2022-12-13T01:54:33.589Z,66.80
2022-12-13T01:57:01.798Z,66.90
2022-12-13T01:59:28.570Z,66.80
2022-12-13T02:02:00.996Z,66.80
2022-12-13T02:04:44.481Z,66.80
2022-12-13T02:07:13.611Z,66.80
2022-12-13T02:09:57.043Z,66.80
2022-12-13T02:12:30.234Z,66.80
2022-12-13T02:15:00.790Z,67.60
2022-12-13T02:17:27.936Z,66.90
2022-12-13T02:19:54.630Z,66.90
2022-12-13T02:22:56.269Z,66.90
2022-12-13T02:25:41.253Z,67.00
2022-12-13T02:28:30.915Z,67.00
2022-12-13T02:31:23.263Z,67.10
2022-12-13T02:34:05.580Z,66.90
2022-12-13T02:36:36.446Z,66.80
2022-12-13T02:39:30.370Z,66.80
2022-12-13T02:42:21.365Z,66.80
2022-12-13T02:44:57.988Z,66.90
2022-12-13T02:47:25.458Z,67.00
2022-12-13T02:49:54.558Z,67.20
2022-12-13T02:52:25.041Z,67.20
2022-12-13T02:54:54.832Z,68.00
2022-12-13T02:57:36.792Z,67.10
2022-12-13T03:00:12.442Z,67.10
2022-12-13T03:02:45.336Z,67.20
2022-12-13T03:05:41.218Z,67.20
2022-12-13T03:08:32.440Z,67.20
2022-12-13T03:11:05.937Z,67.40
2022-12-13T03:14:02.400Z,67.50
2022-12-13T03:16:36.685Z,67.60
2022-12-13T03:19:07.206Z,67.60
2022-12-13T03:22:00.268Z,67.80
2022-12-13T03:24:27.038Z,67.80
2022-12-13T03:26:54.431Z,67.80
2022-12-13T03:29:23.654Z,67.80
2022-12-13T03:31:52.999Z,67.70
2022-12-13T03:34:22.387Z,67.80
2022-12-13T03:36:51.217Z,67.60
2022-12-13T03:39:17.978Z,67.60
2022-12-13T03:41:44.725Z,67.50
2022-12-13T03:44:11.447Z,67.50
2022-12-13T03:46:38.675Z,67.50
2022-12-13T03:49:05.487Z,67.40
2022-12-13T03:51:32.191Z,67.40
2022-12-13T03:53:58.947Z,67.40
2022-12-13T03:56:26.338Z,67.40
2022-12-13T03:58:54.140Z,67.40
2022-12-13T04:01:22.217Z,67.50
2022-12-13T04:03:49.043Z,67.50
2022-12-13T04:06:22.489Z,67.50
2022-12-13T04:08:52.063Z,67.50
2022-12-13T04:11:42.922Z,67.50
2022-12-13T04:14:11.087Z,67.50
2022-12-13T04:16:37.893Z,67.40
2022-12-13T04:19:04.654Z,67.40
2022-12-13T04:21:31.384Z,67.50
2022-12-13T04:24:00.880Z,67.50
2022-12-13T04:26:28.450Z,67.50
2022-12-13T04:28:55.368Z,67.60
2022-12-13T04:31:22.266Z,67.70
2022-12-13T04:33:49.108Z,67.80
2022-12-13T04:36:31.137Z,67.80
2022-12-13T04:39:00.880Z,67.80
2022-12-13T04:41:34.057Z,67.90
2022-12-13T04:44:01.314Z,67.80
2022-12-13T04:46:28.114Z,67.80
2022-12-13T04:48:56.911Z,67.80
2022-12-13T04:51:23.771Z,67.80
2022-12-13T04:53:50.634Z,67.90
2022-12-13T04:56:17.353Z,68.00
2022-12-13T04:58:44.109Z,67.90
2022-12-13T05:01:11.552Z,68.00
2022-12-13T05:03:38.587Z,68.00
2022-12-13T05:06:27.059Z,68.70
2022-12-13T05:08:54.651Z,67.80
2022-12-13T05:11:35.392Z,68.80
2022-12-13T05:14:02.767Z,67.90
2022-12-13T05:16:30.092Z,67.80
2022-12-13T05:18:57.559Z,67.70
2022-12-13T05:21:24.524Z,67.80
2022-12-13T05:23:51.290Z,67.70
2022-12-13T05:26:18.018Z,67.70
2022-12-13T05:28:44.727Z,67.70
2022-12-13T05:31:23.242Z,67.70
2022-12-13T05:33:51.483Z,67.60
2022-12-13T05:36:18.362Z,67.60
2022-12-13T05:38:45.098Z,67.50
2022-12-13T05:41:16.392Z,67.80
2022-12-13T05:43:43.937Z,67.60
2022-12-13T05:46:14.206Z,67.50
2022-12-13T05:48:41.162Z,67.40
2022-12-13T05:51:09.971Z,67.50
2022-12-13T05:53:38.449Z,67.40
2022-12-13T05:56:05.551Z,68.00
2022-12-13T05:58:35.740Z,68.40
2022-12-13T06:01:11.260Z,68.30
2022-12-13T06:03:38.247Z,68.20
2022-12-13T06:06:05.546Z,68.20
2022-12-13T06:08:33.824Z,68.20
2022-12-13T06:11:10.887Z,68.10
2022-12-13T06:13:42.162Z,68.10
2022-12-13T06:16:21.786Z,68.20
2022-12-13T06:18:55.929Z,68.10
2022-12-13T06:21:29.023Z,68.10
2022-12-13T06:23:57.970Z,68.20
2022-12-13T06:26:24.694Z,68.20
2022-12-13T06:28:51.441Z,68.30
2022-12-13T06:31:18.404Z,68.20
2022-12-13T06:33:45.233Z,68.30
2022-12-13T06:36:11.992Z,68.20
2022-12-13T06:38:43.445Z,68.30
2022-12-13T06:41:15.193Z,68.20
2022-12-13T06:43:43.463Z,68.30
2022-12-13T06:46:10.374Z,68.20
2022-12-13T06:48:37.427Z,68.20
2022-12-13T06:51:04.620Z,68.10
2022-12-13T06:53:32.669Z,67.90
2022-12-13T06:56:06.539Z,67.60
2022-12-13T06:58:34.306Z,67.60
2022-12-13T07:01:14.498Z,67.50
2022-12-13T07:03:42.396Z,67.50
2022-12-13T07:06:15.499Z,67.40
2022-12-13T07:08:43.071Z,67.40
2022-12-13T07:11:16.830Z,67.60
2022-12-13T07:13:44.126Z,67.60
2022-12-13T07:16:11.815Z,67.70
2022-12-13T07:18:39.112Z,67.70
2022-12-13T07:21:10.548Z,69.00
2022-12-13T07:23:55.393Z,68.20
2022-12-13T07:26:22.809Z,68.60
2022-12-13T07:28:54.707Z,68.90
2022-12-13T07:31:23.042Z,68.80
2022-12-13T07:33:50.502Z,69.30
2022-12-13T07:36:19.073Z,69.60
2022-12-13T07:38:51.231Z,70.00
2022-12-13T07:41:23.370Z,70.40
2022-12-13T07:43:55.002Z,70.10
2022-12-13T07:46:31.824Z,69.60
2022-12-13T07:49:04.330Z,69.50
2022-12-13T07:51:34.761Z,68.90
2022-12-13T07:54:06.833Z,70.20
2022-12-13T07:56:35.738Z,68.40
2022-12-13T07:59:04.664Z,69.20
2022-12-13T08:01:35.274Z,69.80
2022-12-13T08:04:05.121Z,70.00
2022-12-13T08:06:36.670Z,70.50
2022-12-13T08:09:06.053Z,71.30
2022-12-13T08:11:35.296Z,71.90
2022-12-13T08:14:03.454Z,72.20
2022-12-13T08:16:30.934Z,72.60
2022-12-13T08:19:02.884Z,73.30
2022-12-13T08:24:23.863Z,74.20
2022-12-13T08:26:50.606Z,74.20
2022-12-13T08:29:23.503Z,74.00
2022-12-13T08:32:06.346Z,73.80
2022-12-13T08:34:34.137Z,73.80
2022-12-13T08:37:02.031Z,73.90
2022-12-13T08:39:34.168Z,73.70
2022-12-13T08:42:16.099Z,73.60
2022-12-13T08:44:50.117Z,73.50
2022-12-13T08:47:23.563Z,73.50
2022-12-13T08:50:04.553Z,73.70
2022-12-13T08:52:40.775Z,74.40
2022-12-13T08:55:13.017Z,74.50
2022-12-13T08:57:40.582Z,74.60
2022-12-13T09:00:08.454Z,74.80
2022-12-13T09:02:38.040Z,75.00
2022-12-13T09:05:07.401Z,75.20
2022-12-13T09:07:36.142Z,74.80
2022-12-13T09:10:25.778Z,74.00
2022-12-13T09:12:51.854Z,75.00
2022-12-13T09:15:22.631Z,74.60
2022-12-13T09:17:52.277Z,74.30
2022-12-13T09:20:29.503Z,73.90
2022-12-13T09:23:01.630Z,73.50
2022-12-13T09:25:37.001Z,73.50
2022-12-13T09:28:08.204Z,73.50
2022-12-13T09:30:36.061Z,73.10
2022-12-13T09:33:28.763Z,72.70
2022-12-13T09:35:52.020Z,72.50
2022-12-13T09:38:18.869Z,72.40
2022-12-13T09:40:46.044Z,72.50
2022-12-13T09:43:21.802Z,72.70
2022-12-13T09:45:50.551Z,72.50
2022-12-13T09:48:22.286Z,72.80
2022-12-13T09:50:58.459Z,72.70
2022-12-13T09:53:37.367Z,72.70
2022-12-13T09:56:10.536Z,72.70
2022-12-13T09:58:38.123Z,72.90
2022-12-13T10:01:05.114Z,72.80
2022-12-13T10:03:32.931Z,73.00
2022-12-13T10:06:03.472Z,72.60
2022-12-13T10:08:40.234Z,72.50
2022-12-13T10:11:06.994Z,72.40
2022-12-13T10:13:42.877Z,72.40
2022-12-13T10:16:37.265Z,72.40
2022-12-13T10:19:28.844Z,72.10
2022-12-13T10:22:01.345Z,72.10
2022-12-13T10:24:57.024Z,72.00
2022-12-13T10:27:38.203Z,71.50
2022-12-13T10:30:28.720Z,71.60
2022-12-13T10:32:56.980Z,72.50
2022-12-13T10:35:28.416Z,71.70
2022-12-13T10:38:00.378Z,71.50
2022-12-13T10:40:33.270Z,71.40
2022-12-13T10:43:12.540Z,71.60
2022-12-13T10:45:39.917Z,71.40
2022-12-13T10:48:10.553Z,71.30
2022-12-13T10:50:37.318Z,71.30
2022-12-13T10:53:04.981Z,71.40
2022-12-13T10:55:34.980Z,71.30
2022-12-13T10:58:04.588Z,71.50
2022-12-13T11:00:41.858Z,71.30
2022-12-13T11:03:10.132Z,71.40
2022-12-13T11:05:38.236Z,71.40
2022-12-13T11:08:15.979Z,71.40
2022-12-13T11:10:42.855Z,71.40
2022-12-13T11:13:09.713Z,71.20
2022-12-13T11:15:37.710Z,71.40
2022-12-13T11:18:20.106Z,71.50
2022-12-13T11:20:57.433Z,71.40
2022-12-13T11:23:42.845Z,71.60
2022-12-13T11:26:11.418Z,71.30
2022-12-13T11:29:08.862Z,71.30
2022-12-13T11:32:04.931Z,71.00
2022-12-13T11:34:48.253Z,70.50
2022-12-13T11:37:36.008Z,69.70
2022-12-13T11:40:10.683Z,69.30
2022-12-13T11:42:54.721Z,68.20
2022-12-13T11:45:33.339Z,69.00
2022-12-13T11:48:09.706Z,70.00
2022-12-13T11:50:45.850Z,71.10
2022-12-13T11:53:19.174Z,70.90
2022-12-13T11:56:14.678Z,71.10
2022-12-13T11:59:05.712Z,73.70
2022-12-13T12:02:16.797Z,71.70
2022-12-13T12:04:56.602Z,70.50
2022-12-13T12:07:38.313Z,70.50
2022-12-13T12:10:14.161Z,70.60
2022-12-13T12:12:45.996Z,70.60
2022-12-13T12:15:16.775Z,70.60
2022-12-13T12:17:43.982Z,72.00
2022-12-13T12:20:13.401Z,72.10
2022-12-13T12:23:00.242Z,72.30
2022-12-13T12:25:31.057Z,72.20
2022-12-13T12:28:27.029Z,70.90
2022-12-13T12:31:03.507Z,70.80
2022-12-13T12:33:49.695Z,70.60
2022-12-13T12:36:19.950Z,70.50
2022-12-13T12:38:53.873Z,70.30
2022-12-13T12:41:26.549Z,70.30
2022-12-13T12:43:59.503Z,70.20
2022-12-13T12:47:09.289Z,70.10
2022-12-13T12:49:55.984Z,70.20
2022-12-13T12:52:47.473Z,70.10
2022-12-13T12:55:43.516Z,70.20
2022-12-13T12:58:28.780Z,70.10
2022-12-13T13:01:13.336Z,69.90
2022-12-13T13:03:41.580Z,70.00
2022-12-13T13:06:22.161Z,69.80
2022-12-13T13:08:59.206Z,69.70
2022-12-13T13:11:27.677Z,69.50
2022-12-13T13:14:19.923Z,69.40
2022-12-13T13:16:46.722Z,69.20
2022-12-13T13:19:25.392Z,69.00
2022-12-13T13:22:02.040Z,69.40
2022-12-13T13:24:30.434Z,69.40
2022-12-13T13:26:59.906Z,70.10
2022-12-13T13:29:29.955Z,70.00
2022-12-13T13:32:05.397Z,69.40
2022-12-13T13:34:37.367Z,69.50
2022-12-13T13:37:05.507Z,69.60
2022-12-13T13:39:32.265Z,69.50
2022-12-13T13:42:09.285Z,69.60
2022-12-13T13:44:54.771Z,69.60
2022-12-13T13:47:22.345Z,69.60
2022-12-13T13:50:04.231Z,69.60
2022-12-13T13:53:05.019Z,69.20
2022-12-13T13:55:57.036Z,68.70
2022-12-13T13:58:55.379Z,68.60
2022-12-13T14:02:01.497Z,68.90
2022-12-13T14:05:08.694Z,69.40
2022-12-13T14:08:20.079Z,69.70
2022-12-13T14:10:51.595Z,70.00
2022-12-13T14:13:44.884Z,70.10
2022-12-13T14:16:30.690Z,70.10
2022-12-13T14:19:28.002Z,70.00
2022-12-13T14:22:10.195Z,70.30
2022-12-13T14:24:49.581Z,70.00
2022-12-13T14:27:21.314Z,69.90
2022-12-13T14:29:57.814Z,69.80
2022-12-13T14:32:27.832Z,69.30
2022-12-13T14:34:57.842Z,68.90
2022-12-13T14:37:32.331Z,68.70
2022-12-13T14:39:59.963Z,68.70
2022-12-13T14:42:30.154Z,68.90
2022-12-13T14:45:13.622Z,68.90
2022-12-13T14:47:41.583Z,69.80
2022-12-13T14:50:11.478Z,69.30
2022-12-13T14:52:40.604Z,70.30
2022-12-13T14:55:10.086Z,71.60
2022-12-13T14:57:38.931Z,71.50
2022-12-13T15:00:25.959Z,71.40
2022-12-13T15:02:57.643Z,70.60
2022-12-13T15:05:30.725Z,70.90
2022-12-13T15:07:57.650Z,70.10
2022-12-13T15:10:47.937Z,70.40
2022-12-13T15:13:29.419Z,70.50
2022-12-13T15:16:00.345Z,70.30
2022-12-13T15:18:27.650Z,70.30
2022-12-13T15:20:55.687Z,69.80
2022-12-13T15:23:38.021Z,69.80
2022-12-13T15:26:29.207Z,69.80
2022-12-13T15:28:58.613Z,69.50
2022-12-13T15:31:25.723Z,69.50
2022-12-13T15:33:52.588Z,69.40
2022-12-13T15:36:28.117Z,69.30
2022-12-13T15:38:54.886Z,69.10
2022-12-13T15:41:36.741Z,69.00
2022-12-13T15:44:08.877Z,69.00
2022-12-13T15:46:39.945Z,68.90
2022-12-13T15:49:08.305Z,68.70
2022-12-13T15:51:38.846Z,68.60
2022-12-13T15:54:12.059Z,68.70
2022-12-13T15:56:41.586Z,68.70
2022-12-13T15:59:27.947Z,68.60
2022-12-13T16:01:58.291Z,68.70
2022-12-13T16:04:28.455Z,68.70
2022-12-13T16:06:58.307Z,68.60
2022-12-13T16:09:27.783Z,68.30
2022-12-13T16:12:07.455Z,68.50
2022-12-13T16:14:38.214Z,68.60
2022-12-13T16:17:16.083Z,68.30
2022-12-13T16:19:42.962Z,67.80
2022-12-13T16:22:11.122Z,67.70
2022-12-13T16:24:38.752Z,67.60
2022-12-13T16:27:08.531Z,67.20
2022-12-13T16:29:36.002Z,67.20
2022-12-13T16:32:09.061Z,67.00
2022-12-13T16:34:37.234Z,67.00
2022-12-13T16:37:09.080Z,67.00
2022-12-13T16:51:00.483Z,67.00
2022-12-13T16:53:27.770Z,66.90
2022-12-13T16:55:58.120Z,66.90
2022-12-13T16:58:26.303Z,66.90
2022-12-13T17:00:58.879Z,66.80
2022-12-13T17:03:27.020Z,66.80
2022-12-13T17:05:58.851Z,66.60
2022-12-13T17:08:25.871Z,66.50
2022-12-13T17:10:57.999Z,66.30
2022-12-13T17:13:26.041Z,66.10
2022-12-13T17:15:58.945Z,66.10
2022-12-13T17:18:26.602Z,66.00
2022-12-13T17:20:58.486Z,66.40
2022-12-13T17:23:26.445Z,66.40
2022-12-13T17:25:58.848Z,66.30
2022-12-13T17:28:25.808Z,66.30
2022-12-13T17:30:55.148Z,66.20
2022-12-13T17:33:22.337Z,66.20
2022-12-13T17:35:50.619Z,66.80
2022-12-13T17:38:18.317Z,66.90
2022-12-13T17:40:54.322Z,67.20
2022-12-13T17:43:31.469Z,67.40
2022-12-13T17:46:05.906Z,67.20
2022-12-13T17:48:39.783Z,67.60
2022-12-13T17:51:08.606Z,67.50
2022-12-13T17:53:36.118Z,67.60
2022-12-13T17:56:05.469Z,67.80
2022-12-13T17:58:32.333Z,68.10
2022-12-13T18:00:59.571Z,68.40
2022-12-13T18:03:26.910Z,68.40
2022-12-13T18:05:57.872Z,68.20
2022-12-13T18:08:27.595Z,68.30
2022-12-13T18:11:15.730Z,68.40
2022-12-13T18:13:42.337Z,68.70
2022-12-13T18:16:10.999Z,68.70
2022-12-13T18:18:38.032Z,68.80
2022-12-13T18:21:05.908Z,68.60
2022-12-13T18:23:33.304Z,68.60
2022-12-13T18:26:01.040Z,68.60
2022-12-13T18:28:28.178Z,69.00
2022-12-13T18:30:58.972Z,70.00
2022-12-13T18:33:26.221Z,70.00
2022-12-13T18:35:53.355Z,69.90
2022-12-13T18:38:21.056Z,69.50
2022-12-13T18:40:49.957Z,69.20
2022-12-13T18:43:20.212Z,68.40
2022-12-13T18:45:48.270Z,68.30
2022-12-13T18:48:15.180Z,68.10
2022-12-13T18:50:47.084Z,68.00
2022-12-13T18:53:17.777Z,68.50
2022-12-13T18:55:44.634Z,68.10
2022-12-13T18:58:12.639Z,68.40
2022-12-13T19:00:39.405Z,69.10
2022-12-13T19:03:06.174Z,69.60
2022-12-13T19:05:32.930Z,70.30
2022-12-13T19:07:59.791Z,71.50
2022-12-13T19:10:26.742Z,71.40
2022-12-13T19:12:53.519Z,71.90
2022-12-13T19:15:20.291Z,72.30
2022-12-13T19:17:49.344Z,73.60
2022-12-13T19:20:17.971Z,72.50
2022-12-13T19:22:45.069Z,71.80
2022-12-13T19:25:11.814Z,72.10
2022-12-13T19:27:38.590Z,72.80
2022-12-13T19:30:05.900Z,72.10
2022-12-13T19:32:33.135Z,70.50
2022-12-13T19:35:00.121Z,70.60
2022-12-13T19:37:26.862Z,70.00
2022-12-13T19:39:53.608Z,69.70
2022-12-13T19:42:21.127Z,70.50
2022-12-13T19:44:49.569Z,69.30
2022-12-13T19:47:17.599Z,70.40
2022-12-13T19:49:44.530Z,69.80
2022-12-13T19:52:12.700Z,70.60
2022-12-13T19:54:39.545Z,71.70
2022-12-13T19:57:07.516Z,72.30
2022-12-13T19:59:34.354Z,74.20
2022-12-13T20:02:01.163Z,74.00
2022-12-13T20:04:28.098Z,73.60
2022-12-13T20:06:54.868Z,73.60
2022-12-13T20:09:21.600Z,73.50
2022-12-13T20:11:49.676Z,72.30
2022-12-13T20:14:16.655Z,73.00
2022-12-13T20:16:44.253Z,73.40
2022-12-13T20:19:11.171Z,73.80
2022-12-13T20:21:37.969Z,72.80
2022-12-13T20:24:05.012Z,73.60
2022-12-13T20:26:33.209Z,72.50
2022-12-13T20:29:00.177Z,72.40
2022-12-13T20:31:29.359Z,72.10
2022-12-13T20:33:57.179Z,71.00
2022-12-13T20:36:26.412Z,70.90
2022-12-13T20:38:58.280Z,70.70
2022-12-13T20:41:26.512Z,70.60
2022-12-13T20:43:54.197Z,70.90
2022-12-13T20:46:21.433Z,70.60
2022-12-13T20:48:49.846Z,70.90
2022-12-13T20:51:19.396Z,70.70
2022-12-13T20:53:48.165Z,70.10
2022-12-13T20:56:17.231Z,70.40
2022-12-13T20:58:44.445Z,69.90
2022-12-13T21:01:15.991Z,70.00
2022-12-13T21:03:42.901Z,70.00
2022-12-13T21:06:09.689Z,70.00
2022-12-13T21:08:51.515Z,70.00
2022-12-13T21:11:27.250Z,73.60
2022-12-13T21:14:08.864Z,71.20
2022-12-13T21:16:39.099Z,72.30
2022-12-13T21:19:06.128Z,72.60
2022-12-13T21:21:32.945Z,72.80
2022-12-13T21:23:59.964Z,71.60
2022-12-13T21:26:33.106Z,71.20
2022-12-13T21:29:02.568Z,71.00
2022-12-13T21:31:29.519Z,71.00
2022-12-13T21:34:00.226Z,70.90
2022-12-13T21:36:36.959Z,70.90
2022-12-13T21:39:10.195Z,70.70
2022-12-13T21:41:36.991Z,70.60
2022-12-13T21:44:03.984Z,70.30
2022-12-13T21:46:55.293Z,70.10
2022-12-13T21:49:18.447Z,70.20
2022-12-13T21:51:48.237Z,70.10
2022-12-13T21:54:16.074Z,70.10
2022-12-13T21:57:01.540Z,70.30
2022-12-13T21:59:28.809Z,70.10
2022-12-13T22:02:13.234Z,70.70
2022-12-13T22:04:46.890Z,71.20
2022-12-13T22:07:29.027Z,71.20
2022-12-13T22:09:56.049Z,71.80
2022-12-13T22:12:24.445Z,71.10
2022-12-13T22:14:51.715Z,71.20
2022-12-13T22:17:26.963Z,71.40
2022-12-13T22:19:58.288Z,71.30
2022-12-13T22:22:25.615Z,71.40
2022-12-13T22:24:53.865Z,71.50
2022-12-13T22:27:24.467Z,71.50
2022-12-13T22:29:57.204Z,71.70
2022-12-13T22:32:25.773Z,71.70
2022-12-13T22:34:52.798Z,71.70
2022-12-13T22:37:21.529Z,71.90
2022-12-13T22:39:49.388Z,72.10
2022-12-13T22:42:16.513Z,72.20
2022-12-13T22:44:43.664Z,72.40
2022-12-13T22:47:10.592Z,72.50
2022-12-13T22:49:37.652Z,72.50
2022-12-13T22:52:05.445Z,72.60
2022-12-13T22:54:32.329Z,72.60
2022-12-13T22:56:59.815Z,72.30
2022-12-13T22:59:26.803Z,72.20
2022-12-13T23:02:01.395Z,72.10
2022-12-13T23:04:29.500Z,72.10
2022-12-13T23:06:56.244Z,72.20
2022-12-13T23:09:23.064Z,72.20
2022-12-13T23:12:08.651Z,72.10
2022-12-13T23:14:35.369Z,72.90
2022-12-13T23:17:02.367Z,72.00
2022-12-13T23:19:41.616Z,72.10
2022-12-13T23:22:16.186Z,71.90
2022-12-13T23:24:43.178Z,71.80
2022-12-13T23:27:09.903Z,71.80
2022-12-13T23:29:36.771Z,71.80
2022-12-13T23:32:03.535Z,71.80
2022-12-13T23:34:30.469Z,71.80
2022-12-13T23:36:57.184Z,71.80
2022-12-13T23:39:24.234Z,71.80
2022-12-13T23:41:51.453Z,71.90
2022-12-13T23:44:18.175Z,71.80
2022-12-13T23:46:48.556Z,71.80
2022-12-13T23:49:15.877Z,71.90
2022-12-13T23:51:42.623Z,71.90
2022-12-13T23:54:11.781Z,71.90
2022-12-13T23:56:38.505Z,71.90
2022-12-13T23:59:05.228Z,71.90
